createdAt,value
2019-05-26T00:01:11.272Z,40.66
2019-05-26T00:03:43.411Z,40.64
2019-05-26T00:06:13.611Z,40.42
2019-05-26T00:08:44.226Z,39.78
2019-05-26T00:11:15.961Z,39.86
2019-05-26T00:13:46.110Z,39.80
2019-05-26T00:16:16.301Z,40.02
2019-05-26T00:18:47.150Z,38.89
2019-05-26T00:21:17.395Z,39.69
2019-05-26T00:23:49.872Z,38.72
2019-05-26T00:26:21.106Z,39.45
2019-05-26T00:28:51.931Z,40.31
2019-05-26T00:31:22.122Z,39.12
2019-05-26T00:33:52.679Z,39.85
2019-05-26T00:36:24.229Z,39.46
2019-05-26T00:38:55.370Z,39.53
2019-05-26T00:41:25.783Z,40.80
2019-05-26T00:43:56.349Z,40.15
2019-05-26T00:46:26.731Z,40.15
2019-05-26T00:48:57.362Z,41.74
2019-05-26T00:51:27.584Z,41.74
2019-05-26T00:53:57.765Z,41.38
2019-05-26T00:56:28.475Z,40.24
2019-05-26T00:58:59.570Z,40.24
2019-05-26T01:01:30.770Z,41.89
2019-05-26T01:04:01.264Z,41.45
2019-05-26T01:06:31.442Z,41.59
2019-05-26T01:09:06.022Z,41.59
2019-05-26T01:11:38.371Z,40.91
2019-05-26T01:14:08.729Z,40.91
2019-05-26T01:16:41.200Z,43.04
2019-05-26T01:19:12.784Z,43.37
2019-05-26T01:21:43.398Z,44.34
2019-05-26T01:24:15.683Z,43.21
2019-05-26T01:26:45.884Z,45.18
2019-05-26T01:29:16.097Z,45.17
2019-05-26T01:31:46.745Z,44.19
2019-05-26T01:34:18.087Z,43.95
2019-05-26T01:36:49.460Z,44.44
2019-05-26T01:39:19.625Z,44.63
2019-05-26T01:41:49.840Z,44.50
2019-05-26T01:44:20.783Z,44.02
2019-05-26T01:46:50.975Z,45.93
2019-05-26T01:49:22.218Z,45.37
2019-05-26T01:51:53.402Z,44.57
2019-05-26T01:54:25.385Z,44.99
2019-05-26T01:56:55.985Z,43.80
2019-05-26T01:59:26.174Z,43.97
2019-05-26T02:01:58.763Z,44.39
2019-05-26T02:04:29.773Z,44.40
2019-05-26T02:06:59.955Z,45.64
2019-05-26T02:09:32.234Z,45.55
2019-05-26T02:12:04.298Z,45.02
2019-05-26T02:14:35.399Z,44.45
2019-05-26T02:17:06.768Z,45.44
2019-05-26T02:19:37.607Z,44.49
2019-05-26T02:22:07.892Z,44.92
2019-05-26T02:24:38.072Z,45.07
2019-05-26T02:27:08.256Z,45.29
2019-05-26T02:29:38.990Z,44.06
2019-05-26T02:32:10.981Z,46.07
2019-05-26T02:34:41.740Z,46.09
2019-05-26T02:37:13.679Z,45.95
2019-05-26T02:39:44.853Z,46.26
2019-05-26T02:42:16.586Z,45.67
2019-05-26T02:44:46.824Z,45.77
2019-05-26T02:47:17.005Z,44.92
2019-05-26T02:49:47.177Z,45.12
2019-05-26T02:52:17.959Z,47.21
2019-05-26T02:54:48.140Z,47.01
2019-05-26T02:57:18.311Z,47.42
2019-05-26T02:59:49.508Z,46.74
2019-05-26T03:02:20.218Z,46.46
2019-05-26T03:04:50.892Z,47.27
2019-05-26T03:07:23.490Z,47.24
2019-05-26T03:09:57.057Z,46.93
2019-05-26T03:12:31.430Z,46.66
2019-05-26T03:15:03.135Z,47.42
2019-05-26T03:17:35.465Z,48.14
2019-05-26T03:20:06.765Z,48.29
2019-05-26T03:22:41.961Z,47.19
2019-05-26T03:25:13.248Z,48.10
2019-05-26T03:27:43.371Z,48.55
2019-05-26T03:30:13.560Z,47.72
2019-05-26T03:32:47.173Z,47.40
2019-05-26T03:35:17.348Z,47.38
2019-05-26T03:37:53.128Z,48.67
2019-05-26T03:40:23.282Z,49.69
2019-05-26T03:42:54.843Z,49.29
2019-05-26T03:45:33.180Z,48.39
2019-05-26T03:48:03.476Z,48.96
2019-05-26T03:50:34.559Z,48.61
2019-05-26T03:53:07.516Z,48.43
2019-05-26T03:55:37.814Z,48.93
2019-05-26T03:58:08.075Z,49.26
2019-05-26T04:00:38.345Z,48.73
2019-05-26T04:03:08.940Z,49.29
2019-05-26T04:05:39.122Z,49.18
2019-05-26T04:08:09.328Z,48.36
2019-05-26T04:10:40.882Z,47.49
2019-05-26T04:13:13.362Z,49.79
2019-05-26T04:15:43.660Z,50.22
2019-05-26T04:18:14.932Z,49.19
2019-05-26T04:20:46.071Z,49.28
2019-05-26T04:23:16.800Z,48.57
2019-05-26T04:25:47.815Z,48.07
2019-05-26T04:28:17.985Z,48.52
2019-05-26T04:30:48.185Z,47.87
2019-05-26T04:33:20.876Z,49.22
2019-05-26T04:35:51.182Z,48.66
2019-05-26T04:38:22.600Z,48.38
2019-05-26T04:40:53.865Z,49.20
2019-05-26T04:43:25.043Z,48.59
2019-05-26T04:45:55.780Z,48.89
2019-05-26T04:48:29.091Z,48.35
2019-05-26T04:50:59.383Z,48.42
2019-05-26T04:53:29.576Z,48.11
2019-05-26T04:56:00.608Z,47.94
2019-05-26T04:58:31.530Z,47.98
2019-05-26T05:01:03.719Z,47.00
2019-05-26T05:03:35.008Z,48.61
2019-05-26T05:06:08.101Z,47.31
2019-05-26T05:08:38.738Z,47.70
2019-05-26T05:11:08.919Z,47.61
2019-05-26T05:13:39.102Z,47.61
2019-05-26T05:16:11.596Z,47.74
2019-05-26T05:18:42.205Z,48.68
2019-05-26T05:21:12.422Z,47.76
2019-05-26T05:23:42.620Z,47.72
2019-05-26T05:26:12.914Z,49.26
2019-05-26T05:28:43.612Z,49.07
2019-05-26T05:31:14.421Z,47.98
2019-05-26T05:33:45.772Z,47.82
2019-05-26T05:36:16.064Z,47.17
2019-05-26T05:38:47.780Z,47.98
2019-05-26T05:41:18.089Z,47.11
2019-05-26T05:43:48.355Z,46.57
2019-05-26T05:46:18.538Z,45.22
2019-05-26T05:48:48.697Z,46.37
2019-05-26T05:51:18.917Z,46.35
2019-05-26T05:53:49.844Z,45.09
2019-05-26T05:56:20.128Z,45.09
2019-05-26T05:58:51.786Z,45.40
2019-05-26T06:01:21.994Z,45.38
2019-05-26T06:03:52.575Z,44.08
2019-05-26T06:06:24.454Z,44.72
2019-05-26T06:08:54.712Z,43.83
2019-05-26T06:11:24.878Z,44.43
2019-05-26T06:13:55.931Z,45.89
2019-05-26T06:16:26.581Z,44.13
2019-05-26T06:18:57.134Z,44.13
2019-05-26T06:21:29.277Z,43.59
2019-05-26T06:24:00.291Z,43.01
2019-05-26T06:26:30.985Z,44.88
2019-05-26T06:29:01.451Z,43.67
2019-05-26T06:31:32.140Z,43.88
2019-05-26T06:34:02.790Z,44.66
2019-05-26T06:36:34.610Z,43.17
2019-05-26T06:39:08.301Z,42.90
2019-05-26T06:41:38.509Z,43.15
2019-05-26T06:44:11.297Z,43.23
2019-05-26T06:46:41.496Z,41.74
2019-05-26T06:49:12.119Z,41.56
2019-05-26T06:51:44.437Z,40.79
2019-05-26T06:54:15.179Z,41.06
2019-05-26T06:56:45.700Z,40.71
2019-05-26T06:59:15.892Z,41.83
2019-05-26T07:01:47.362Z,42.66
2019-05-26T07:04:19.384Z,42.82
2019-05-26T07:06:52.351Z,40.76
2019-05-26T07:09:22.504Z,39.54
2019-05-26T07:11:59.126Z,39.79
2019-05-26T07:14:25.396Z,40.99
2019-05-26T07:16:56.015Z,40.85
2019-05-26T07:19:26.204Z,41.08
2019-05-26T07:21:57.684Z,41.13
2019-05-26T07:24:29.407Z,42.23
2019-05-26T07:26:59.885Z,40.72
2019-05-26T07:29:31.376Z,39.12
2019-05-26T07:32:10.236Z,38.85
2019-05-26T07:34:40.535Z,38.65
2019-05-26T07:37:11.081Z,39.51
2019-05-26T07:39:46.644Z,38.92
2019-05-26T07:42:17.773Z,39.77
2019-05-26T07:44:48.333Z,38.45
2019-05-26T07:47:18.526Z,38.72
2019-05-26T07:49:48.709Z,39.99
2019-05-26T07:52:19.417Z,38.99
2019-05-26T07:54:50.422Z,39.74
2019-05-26T07:57:21.755Z,39.49
2019-05-26T07:59:52.439Z,39.45
2019-05-26T08:02:23.141Z,38.32
2019-05-26T08:04:55.759Z,37.36
2019-05-26T08:07:25.899Z,39.67
2019-05-26T08:09:56.418Z,39.56
2019-05-26T08:12:30.453Z,38.72
2019-05-26T08:15:00.254Z,42.95
2019-05-26T08:17:33.819Z,41.39
2019-05-26T08:20:04.563Z,40.88
2019-05-26T08:22:34.715Z,39.71
2019-05-26T08:25:06.155Z,39.97
2019-05-26T08:27:37.267Z,39.67
2019-05-26T08:30:09.572Z,39.03
2019-05-26T08:32:39.765Z,38.79
2019-05-26T08:35:10.710Z,41.19
2019-05-26T08:37:42.094Z,42.66
2019-05-26T08:40:20.988Z,42.27
2019-05-26T08:42:52.452Z,41.24
2019-05-26T08:45:24.832Z,38.56
2019-05-26T08:47:55.718Z,37.29
2019-05-26T08:50:26.385Z,37.95
2019-05-26T08:52:58.009Z,37.17
2019-05-26T08:55:29.204Z,38.18
2019-05-26T08:57:59.817Z,37.00
2019-05-26T09:00:31.291Z,36.70
2019-05-26T09:03:01.534Z,35.97
2019-05-26T09:05:31.658Z,36.49
2019-05-26T09:08:01.943Z,38.20
2019-05-26T09:10:32.552Z,35.74
2019-05-26T09:13:02.822Z,37.41
2019-05-26T09:15:33.021Z,36.64
2019-05-26T09:18:03.646Z,36.86
2019-05-26T09:20:35.178Z,36.05
2019-05-26T09:23:05.951Z,33.35
2019-05-26T09:25:36.601Z,33.01
2019-05-26T09:28:06.788Z,33.79
2019-05-26T09:30:38.564Z,32.27
2019-05-26T09:33:09.282Z,31.57
2019-05-26T09:35:41.962Z,32.13
2019-05-26T09:38:13.190Z,32.19
2019-05-26T09:40:44.322Z,32.23
2019-05-26T09:43:16.690Z,32.94
2019-05-26T09:45:47.638Z,34.14
2019-05-26T09:48:17.818Z,35.39
2019-05-26T09:50:48.193Z,34.85
2019-05-26T09:53:21.165Z,32.59
2019-05-26T09:55:57.078Z,33.03
2019-05-26T09:58:28.164Z,33.10
2019-05-26T10:01:00.403Z,32.50
2019-05-26T10:03:31.086Z,31.11
2019-05-26T10:06:02.281Z,29.57
2019-05-26T10:08:32.878Z,28.57
2019-05-26T10:11:03.591Z,27.36
2019-05-26T10:13:33.771Z,27.91
2019-05-26T10:16:06.184Z,28.54
2019-05-26T10:18:36.652Z,28.70
2019-05-26T10:21:07.775Z,30.76
2019-05-26T10:23:37.995Z,28.07
2019-05-26T10:26:10.002Z,29.08
2019-05-26T10:28:40.517Z,29.94
2019-05-26T10:31:10.672Z,30.43
2019-05-26T10:33:42.995Z,31.29
2019-05-26T10:36:13.680Z,29.67
2019-05-26T10:38:45.656Z,29.26
2019-05-26T10:41:16.968Z,31.98
2019-05-26T10:43:48.022Z,29.92
2019-05-26T10:46:18.746Z,30.65
2019-05-26T10:48:51.672Z,30.38
2019-05-26T10:51:28.069Z,30.82
2019-05-26T10:53:59.649Z,30.23
2019-05-26T10:56:30.724Z,31.06
2019-05-26T10:59:01.023Z,30.74
2019-05-26T11:01:31.180Z,31.71
2019-05-26T11:04:02.482Z,30.59
2019-05-26T11:06:33.125Z,32.67
2019-05-26T11:09:06.916Z,31.48
2019-05-26T11:11:37.238Z,32.89
2019-05-26T11:14:07.895Z,33.85
2019-05-26T11:16:38.120Z,32.68
2019-05-26T11:19:08.773Z,32.30
2019-05-26T11:21:38.974Z,33.15
2019-05-26T11:24:12.589Z,30.84
2019-05-26T11:26:42.762Z,31.21
2019-05-26T11:29:12.934Z,31.34
2019-05-26T11:31:43.177Z,31.48
2019-05-26T11:34:13.810Z,33.54
2019-05-26T11:36:43.999Z,34.13
2019-05-26T11:39:14.779Z,32.37
2019-05-26T11:41:54.683Z,34.06
2019-05-26T11:44:19.629Z,32.22
2019-05-26T11:46:50.262Z,32.41
2019-05-26T11:49:20.577Z,32.52
2019-05-26T11:51:51.897Z,33.29
2019-05-26T11:54:22.766Z,33.11
2019-05-26T11:56:55.025Z,34.05
2019-05-26T11:59:26.941Z,32.38
2019-05-26T12:01:57.499Z,33.07
2019-05-26T12:04:29.172Z,31.37
2019-05-26T12:06:59.811Z,30.69
2019-05-26T12:09:31.388Z,31.57
2019-05-26T12:12:01.582Z,31.78
2019-05-26T12:14:35.627Z,29.99
2019-05-26T12:17:07.238Z,30.45
2019-05-26T12:19:37.447Z,29.68
2019-05-26T12:22:11.271Z,30.06
2019-05-26T12:24:42.756Z,28.82
2019-05-26T12:27:13.357Z,28.15
2019-05-26T12:29:43.577Z,29.21
2019-05-26T12:32:13.766Z,29.14
2019-05-26T12:34:44.415Z,31.41
2019-05-26T12:37:16.193Z,29.58
2019-05-26T12:39:49.258Z,31.91
2019-05-26T12:42:19.515Z,30.31
2019-05-26T12:44:50.239Z,29.51
2019-05-26T12:47:20.958Z,30.04
2019-05-26T12:49:51.127Z,30.26
2019-05-26T12:52:21.665Z,31.64
2019-05-26T12:54:54.764Z,31.51
2019-05-26T12:57:25.470Z,28.98
2019-05-26T12:59:55.638Z,29.87
2019-05-26T13:02:25.867Z,30.14
2019-05-26T13:04:55.998Z,29.30
2019-05-26T13:07:26.598Z,29.59
2019-05-26T13:09:57.970Z,29.31
2019-05-26T13:12:31.425Z,29.62
2019-05-26T13:15:05.980Z,29.30
2019-05-26T13:17:34.951Z,31.39
2019-05-26T13:20:06.822Z,31.32
2019-05-26T13:22:37.470Z,32.66
2019-05-26T13:25:09.206Z,30.74
2019-05-26T13:27:39.363Z,31.55
2019-05-26T13:30:10.763Z,32.37
2019-05-26T13:32:40.947Z,34.29
2019-05-26T13:35:13.059Z,32.79
2019-05-26T13:37:47.422Z,31.65
2019-05-26T13:40:19.044Z,30.87
2019-05-26T13:42:50.745Z,31.25
2019-05-26T13:45:23.134Z,29.87
2019-05-26T13:47:57.232Z,31.63
2019-05-26T13:50:29.456Z,30.11
2019-05-26T13:53:00.587Z,31.55
2019-05-26T13:55:33.903Z,29.55
2019-05-26T13:58:05.474Z,28.90
2019-05-26T14:00:35.670Z,28.37
2019-05-26T14:03:06.045Z,30.08
2019-05-26T14:05:36.344Z,29.36
2019-05-26T14:08:06.981Z,29.14
2019-05-26T14:10:39.151Z,30.31
2019-05-26T14:13:09.643Z,32.15
2019-05-26T14:15:39.795Z,31.05
2019-05-26T14:18:13.923Z,31.82
2019-05-26T14:20:44.921Z,31.81
2019-05-26T14:23:15.182Z,31.97
2019-05-26T14:25:45.888Z,33.39
2019-05-26T14:28:20.446Z,31.63
2019-05-26T14:30:51.716Z,33.35
2019-05-26T14:33:21.980Z,31.91
2019-05-26T14:35:52.470Z,32.08
2019-05-26T14:38:23.182Z,32.13
2019-05-26T14:40:53.373Z,32.73
2019-05-26T14:43:24.865Z,34.25
2019-05-26T14:45:58.245Z,32.81
2019-05-26T14:48:30.405Z,32.29
2019-05-26T14:51:00.528Z,32.03
2019-05-26T14:53:31.965Z,34.36
2019-05-26T14:56:03.780Z,33.53
2019-05-26T14:58:34.977Z,36.49
2019-05-26T15:01:08.544Z,35.66
2019-05-26T15:03:39.267Z,35.49
2019-05-26T15:06:09.735Z,35.38
2019-05-26T15:08:40.411Z,36.92
2019-05-26T15:11:10.600Z,35.67
2019-05-26T15:13:42.372Z,35.75
2019-05-26T15:16:13.056Z,36.63
2019-05-26T15:18:44.281Z,38.16
2019-05-26T15:21:17.884Z,39.04
2019-05-26T15:23:47.914Z,37.71
2019-05-26T15:26:20.243Z,37.64
2019-05-26T15:28:52.853Z,37.26
2019-05-26T15:31:25.612Z,36.41
2019-05-26T15:33:55.876Z,36.43
2019-05-26T15:36:27.047Z,35.66
2019-05-26T15:38:58.778Z,35.14
2019-05-26T15:41:29.353Z,36.84
2019-05-26T15:44:04.837Z,36.50
2019-05-26T15:46:35.307Z,38.72
2019-05-26T15:49:10.328Z,37.59
2019-05-26T15:51:41.520Z,36.89
2019-05-26T15:54:12.270Z,35.98
2019-05-26T15:56:42.687Z,36.93
2019-05-26T15:59:13.371Z,36.09
2019-05-26T16:01:45.830Z,37.58
2019-05-26T16:04:16.123Z,36.12
2019-05-26T16:06:46.291Z,35.09
2019-05-26T16:09:16.473Z,35.12
2019-05-26T16:11:47.069Z,36.25
2019-05-26T16:14:17.719Z,38.49
2019-05-26T16:16:53.790Z,37.59
2019-05-26T16:19:25.986Z,37.87
2019-05-26T16:21:56.625Z,37.73
2019-05-26T16:24:28.349Z,39.44
2019-05-26T16:27:05.041Z,40.51
2019-05-26T16:29:32.142Z,38.48
2019-05-26T16:32:03.192Z,37.52
2019-05-26T16:34:33.792Z,37.09
2019-05-26T16:37:04.370Z,38.33
2019-05-26T16:39:37.359Z,40.50
2019-05-26T16:42:06.431Z,39.23
2019-05-26T16:44:38.345Z,37.84
2019-05-26T16:47:08.545Z,37.36
2019-05-26T16:49:43.269Z,36.61
2019-05-26T16:52:17.190Z,35.96
2019-05-26T16:54:48.776Z,36.08
2019-05-26T16:57:19.821Z,38.19
2019-05-26T16:59:50.112Z,39.18
2019-05-26T17:02:20.279Z,39.64
2019-05-26T17:04:53.202Z,37.63
2019-05-26T17:07:28.621Z,37.02
2019-05-26T17:10:01.563Z,37.70
2019-05-26T17:12:32.081Z,37.16
2019-05-26T17:15:02.724Z,36.23
2019-05-26T17:17:34.714Z,37.72
2019-05-26T17:20:08.045Z,37.88
2019-05-26T17:22:38.214Z,36.95
2019-05-26T17:25:09.616Z,36.20
2019-05-26T17:27:40.578Z,37.02
2019-05-26T17:30:12.069Z,38.27
2019-05-26T17:32:43.734Z,37.86
2019-05-26T17:35:18.943Z,38.08
2019-05-26T17:37:50.026Z,37.92
2019-05-26T17:40:23.719Z,37.85
2019-05-26T17:42:54.451Z,38.18
2019-05-26T17:45:26.313Z,38.09
2019-05-26T17:47:58.066Z,38.54
2019-05-26T17:50:28.727Z,40.13
2019-05-26T17:53:02.492Z,39.05
2019-05-26T17:55:32.679Z,37.76
2019-05-26T17:58:04.736Z,36.70
2019-05-26T18:00:35.007Z,38.82
2019-05-26T18:03:05.247Z,39.46
2019-05-26T18:05:35.473Z,37.93
2019-05-26T18:08:06.420Z,39.54
2019-05-26T18:10:37.191Z,38.16
2019-05-26T18:13:09.694Z,38.60
2019-05-26T18:15:42.187Z,37.48
2019-05-26T18:18:13.001Z,36.55
2019-05-26T18:20:50.889Z,36.98
2019-05-26T18:23:22.766Z,37.64
2019-05-26T18:25:53.255Z,40.48
2019-05-26T18:28:26.493Z,41.17
2019-05-26T18:30:57.582Z,39.03
2019-05-26T18:33:27.815Z,37.24
2019-05-26T18:35:57.900Z,39.27
2019-05-26T18:38:28.716Z,39.45
2019-05-26T18:41:00.115Z,39.39
2019-05-26T18:43:30.757Z,40.25
2019-05-26T18:46:03.365Z,38.62
2019-05-26T18:48:33.638Z,38.92
2019-05-26T18:51:06.142Z,37.83
2019-05-26T18:53:36.483Z,38.48
2019-05-26T18:56:07.392Z,40.08
2019-05-26T18:58:37.651Z,38.95
2019-05-26T19:01:07.997Z,37.47
2019-05-26T19:03:40.709Z,39.34
2019-05-26T19:06:11.371Z,38.94
2019-05-26T19:08:42.682Z,37.96
2019-05-26T19:11:17.684Z,38.59
2019-05-26T19:13:48.805Z,38.00
2019-05-26T19:16:20.421Z,38.31
2019-05-26T19:18:50.539Z,38.38
2019-05-26T19:21:20.751Z,37.64
2019-05-26T19:23:50.969Z,36.76
2019-05-26T19:26:23.229Z,38.02
2019-05-26T19:28:54.861Z,37.85
2019-05-26T19:31:25.767Z,38.07
2019-05-26T19:33:55.980Z,39.12
2019-05-26T19:36:26.309Z,39.19
2019-05-26T19:38:58.064Z,37.97
2019-05-26T19:41:28.426Z,37.98
2019-05-26T19:44:01.217Z,37.17
2019-05-26T19:46:32.853Z,38.87
2019-05-26T19:49:06.578Z,38.02
2019-05-26T19:51:38.674Z,38.05
2019-05-26T19:54:09.281Z,39.45
2019-05-26T19:56:41.132Z,37.93
2019-05-26T19:59:11.495Z,38.85
2019-05-26T20:01:43.895Z,38.59
2019-05-26T20:04:14.132Z,38.88
2019-05-26T20:06:44.739Z,37.96
2019-05-26T20:09:22.048Z,38.81
2019-05-26T20:11:56.841Z,38.21
2019-05-26T20:14:30.422Z,39.16
2019-05-26T20:17:01.739Z,37.94
2019-05-26T20:19:33.011Z,37.55
2019-05-26T20:22:03.306Z,36.14
2019-05-26T20:24:33.509Z,36.51
2019-05-26T20:27:03.776Z,37.01
2019-05-26T20:29:35.339Z,36.66
2019-05-26T20:32:09.237Z,35.46
2019-05-26T20:34:42.734Z,35.34
2019-05-26T20:37:12.958Z,35.97
2019-05-26T20:39:43.161Z,35.09
2019-05-26T20:42:13.928Z,35.04
2019-05-26T20:44:47.863Z,34.88
2019-05-26T20:47:19.378Z,34.16
2019-05-26T20:49:49.635Z,35.21
2019-05-26T20:52:20.274Z,35.01
2019-05-26T20:54:50.465Z,34.75
2019-05-26T20:57:23.936Z,34.69
2019-05-26T20:59:54.099Z,35.08
2019-05-26T21:02:29.205Z,33.87
2019-05-26T21:05:01.279Z,34.67
2019-05-26T21:07:32.443Z,34.14
2019-05-26T21:10:02.638Z,34.18
2019-05-26T21:12:33.513Z,33.91
2019-05-26T21:15:04.065Z,33.90
2019-05-26T21:17:37.326Z,35.17
2019-05-26T21:20:09.993Z,35.32
2019-05-26T21:22:40.810Z,35.94
2019-05-26T21:25:22.715Z,37.18
2019-05-26T21:27:54.573Z,37.63
2019-05-26T21:30:24.780Z,38.17
2019-05-26T21:32:58.013Z,39.62
2019-05-26T21:35:28.206Z,40.20
2019-05-26T21:37:58.746Z,40.22
2019-05-26T21:40:30.561Z,41.20
2019-05-26T21:43:01.193Z,41.15
2019-05-26T21:45:33.699Z,40.95
2019-05-26T21:48:05.127Z,41.37
2019-05-26T21:50:36.212Z,41.57
2019-05-26T21:53:07.008Z,41.61
2019-05-26T21:55:38.538Z,43.25
2019-05-26T21:58:09.580Z,42.38
2019-05-26T22:00:42.971Z,42.64
2019-05-26T22:03:14.691Z,42.66
2019-05-26T22:05:51.420Z,42.95
2019-05-26T22:08:22.833Z,43.42
2019-05-26T22:10:54.977Z,42.66
2019-05-26T22:13:25.570Z,43.24
2019-05-26T22:15:57.360Z,45.84
2019-05-26T22:18:29.070Z,45.69
2019-05-26T22:20:59.273Z,44.92
2019-05-26T22:23:38.229Z,44.80
2019-05-26T22:26:08.993Z,45.85
2019-05-26T22:28:40.013Z,48.36
2019-05-26T22:31:10.596Z,48.07
2019-05-26T22:33:43.331Z,46.58
2019-05-26T22:36:14.030Z,45.75
2019-05-26T22:38:46.338Z,45.42
2019-05-26T22:41:16.969Z,47.07
2019-05-26T22:43:48.546Z,48.80
2019-05-26T22:46:19.363Z,47.44
2019-05-26T22:48:52.912Z,46.74
2019-05-26T22:51:23.400Z,45.83
2019-05-26T22:53:56.792Z,46.78
2019-05-26T22:56:28.419Z,46.81
2019-05-26T22:58:58.703Z,47.20
2019-05-26T23:01:30.891Z,46.70
2019-05-26T23:04:03.376Z,47.85
2019-05-26T23:06:34.965Z,47.64
2019-05-26T23:09:06.425Z,46.27
2019-05-26T23:11:36.614Z,45.30
2019-05-26T23:14:07.741Z,45.08
2019-05-26T23:16:39.926Z,44.70
2019-05-26T23:19:19.376Z,45.63
2019-05-26T23:21:43.253Z,44.76
2019-05-26T23:24:17.490Z,46.04
2019-05-26T23:26:49.533Z,47.33
2019-05-26T23:29:22.238Z,45.92
2019-05-26T23:31:54.740Z,44.80
2019-05-26T23:34:28.048Z,46.19
2019-05-26T23:37:02.876Z,46.77
2019-05-26T23:39:36.720Z,46.13
2019-05-26T23:42:07.149Z,46.78
2019-05-26T23:44:38.769Z,47.11
2019-05-26T23:47:08.956Z,47.87
2019-05-26T23:49:42.040Z,47.98
2019-05-26T23:52:12.247Z,45.79
2019-05-26T23:54:43.424Z,45.69
2019-05-26T23:57:13.921Z,45.81
2019-05-26T23:59:45.225Z,45.03
